Time;durP1;ratioP1;P1;durP2;ratioP2;P2;SDS_P1;SDS_P2;PMS_P1;PMS_P2;Temp;Humidity;BMP_temperature;BMP_pressure;BME280_temperature;BME280_humidity;BME280_pressure;Samples;Min_cycle;Max_cycle;Signal;HPM_P1;HPM_P2
2023/05/25 00:02:23;;;;;;;3.72;2.50;;;13.10;56.70;;;;;;5032177;28;20459;-49
2023/05/25 00:04:54;;;;;;;2.50;2.22;;;13.10;56.70;;;;;;5022683;28;20142;-46
2023/05/25 00:07:21;;;;;;;3.95;2.42;;;13.10;56.70;;;;;;5026645;28;20495;-49
2023/05/25 00:09:51;;;;;;;3.00;2.20;;;13.10;56.80;;;;;;5030852;28;20060;-45
2023/05/25 00:12:17;;;;;;;3.72;2.83;;;13.00;56.70;;;;;;5030279;28;20136;-49
2023/05/25 00:14:44;;;;;;;3.97;2.35;;;13.00;56.70;;;;;;5025639;28;20055;-49
2023/05/25 00:17:14;;;;;;;4.35;2.85;;;13.00;56.70;;;;;;5027428;28;20120;-46
2023/05/25 00:19:47;;;;;;;4.85;2.95;;;12.90;57.00;;;;;;5023284;28;20050;-49
2023/05/25 00:22:16;;;;;;;3.55;2.55;;;12.90;57.60;;;;;;5027146;28;20052;-49
2023/05/25 00:24:48;;;;;;;3.97;2.30;;;12.90;57.50;;;;;;5027521;28;20458;-48
2023/05/25 00:27:18;;;;;;;4.45;3.08;;;12.80;57.50;;;;;;5023731;28;20041;-45
2023/05/25 00:29:46;;;;;;;3.83;2.67;;;12.80;58.10;;;;;;5030660;28;20068;-47
2023/05/25 00:32:14;;;;;;;4.50;2.58;;;12.80;57.40;;;;;;5029309;28;20041;-46
2023/05/25 00:34:46;;;;;;;3.92;2.22;;;12.80;57.40;;;;;;5011910;28;20041;-45
2023/05/25 00:37:16;;;;;;;3.22;2.67;;;12.80;57.40;;;;;;4999620;28;20815;-44
2023/05/25 00:39:42;;;;;;;5.85;3.08;;;12.80;57.30;;;;;;5019215;28;20069;-49
2023/05/25 00:42:10;;;;;;;3.97;3.08;;;12.70;57.30;;;;;;5025806;28;20116;-49
2023/05/25 00:44:37;;;;;;;4.50;2.63;;;12.70;57.30;;;;;;5020470;28;20389;-49
2023/05/25 00:47:04;;;;;;;4.70;2.70;;;12.70;57.30;;;;;;5026365;28;20565;-49
2023/05/25 00:49:34;;;;;;;4.82;2.55;;;12.60;57.30;;;;;;5009706;28;20033;-49
2023/05/25 00:52:04;;;;;;;5.35;3.00;;;12.60;57.50;;;;;;4998872;28;20081;-49
2023/05/25 00:54:36;;;;;;;4.85;2.50;;;12.60;57.60;;;;;;5016623;28;20037;-48
2023/05/25 00:57:06;;;;;;;4.78;2.85;;;12.50;57.40;;;;;;5022248;28;20051;-49
2023/05/25 00:59:40;;;;;;;4.00;3.10;;;12.50;57.50;;;;;;5028289;28;20049;-49
2023/05/25 01:02:12;;;;;;;3.55;2.72;;;12.50;57.50;;;;;;5012127;28;20049;-49
2023/05/25 01:05:01;;;;;;;5.22;2.88;;;12.50;57.50;;;;;;5008785;28;20049;-50
2023/05/25 01:07:32;;;;;;;2.95;2.25;;;12.50;58.00;;;;;;5013787;28;20042;-49
2023/05/25 01:10:03;;;;;;;4.40;3.00;;;12.40;57.50;;;;;;5009404;28;20045;-49
2023/05/25 01:12:36;;;;;;;3.30;2.75;;;12.40;57.50;;;;;;5027196;28;20099;-49
2023/05/25 01:15:10;;;;;;;5.60;3.15;;;12.40;57.60;;;;;;5020863;28;20568;-46
2023/05/25 01:17:43;;;;;;;6.65;2.67;;;12.30;57.50;;;;;;5012015;28;20060;-46
2023/05/25 01:20:09;;;;;;;;;;;12.30;57.60;;;;;;5026816;28;20046;-46
2023/05/25 01:22:42;;;;;;;4.43;2.60;;;12.30;57.50;;;;;;5007876;28;19925;-48
2023/05/25 01:25:32;;;;;;;3.15;2.42;;;12.20;57.00;;;;;;5007087;28;20034;-49
2023/05/25 01:28:05;;;;;;;4.35;2.55;;;12.20;57.60;;;;;;5021277;28;20472;-47
2023/05/25 01:30:36;;;;;;;6.03;3.03;;;12.20;57.30;;;;;;4997073;28;20038;-47
2023/05/25 01:33:08;;;;;;;4.05;2.78;;;12.10;57.30;;;;;;5009952;28;20537;-48
2023/05/25 01:35:35;;;;;;;4.72;2.97;;;12.10;57.70;;;;;;5022559;28;20045;-47
2023/05/25 01:38:05;;;;;;;3.90;2.55;;;12.10;57.60;;;;;;5020620;28;20052;-49
2023/05/25 01:40:35;;;;;;;4.15;3.33;;;12.00;57.80;;;;;;5029242;28;20033;-49
2023/05/25 01:43:03;;;;;;;4.28;3.15;;;12.00;57.90;;;;;;5002166;28;20528;-47
2023/05/25 01:45:42;;;;;;;4.43;2.65;;;12.00;57.90;;;;;;5025798;28;20121;-49
2023/05/25 01:48:43;;;;;;;3.95;2.90;;;11.90;57.80;;;;;;5029732;28;20037;-49
2023/05/25 01:51:24;;;;;;;3.28;2.85;;;11.90;58.30;;;;;;5027866;28;20061;-47
2023/05/25 01:54:01;;;;;;;3.95;3.05;;;11.90;58.10;;;;;;5022042;28;20041;-47
2023/05/25 01:56:31;;;;;;;4.07;3.10;;;11.90;58.00;;;;;;5013646;28;20495;-45
2023/05/25 01:59:03;;;;;;;3.70;3.08;;;11.90;58.00;;;;;;5010416;28;20095;-49
2023/05/25 02:01:35;;;;;;;5.05;3.05;;;11.80;58.20;;;;;;5001137;28;20049;-48
2023/05/25 02:04:04;;;;;;;6.00;3.78;;;11.80;58.00;;;;;;5010346;28;20042;-49
2023/05/25 02:06:31;;;;;;;3.22;2.85;;;11.80;58.10;;;;;;5027891;28;20036;-45
2023/05/25 02:09:05;;;;;;;4.72;3.15;;;11.80;58.10;;;;;;4994761;28;20274;-49
2023/05/25 02:11:36;;;;;;;7.07;3.55;;;11.70;58.10;;;;;;5010952;28;20541;-48
2023/05/25 02:14:07;;;;;;;3.63;3.28;;;11.70;58.20;;;;;;5026874;28;20045;-50
2023/05/25 02:16:37;;;;;;;3.05;2.75;;;11.70;58.10;;;;;;5000604;28;20619;-49
2023/05/25 02:19:13;;;;;;;4.68;3.33;;;11.70;58.00;;;;;;5031654;28;20045;-48
2023/05/25 02:21:49;;;;;;;3.83;2.85;;;11.70;58.20;;;;;;5005497;28;20053;-47
2023/05/25 02:24:23;;;;;;;4.97;2.95;;;11.70;58.30;;;;;;5024345;28;20100;-49
2023/05/25 02:26:53;;;;;;;3.35;2.90;;;11.60;58.40;;;;;;5015352;28;20107;-49
2023/05/25 02:29:25;;;;;;;4.18;3.35;;;11.60;58.10;;;;;;5014370;28;20433;-46
2023/05/25 02:31:56;;;;;;;3.65;3.28;;;11.50;58.20;;;;;;5013201;28;20049;-47
2023/05/25 02:34:27;;;;;;;4.13;3.42;;;11.50;58.20;;;;;;5012026;28;20472;-45
2023/05/25 02:36:56;;;;;;;6.05;3.65;;;11.50;58.20;;;;;;5033065;28;20080;-49
2023/05/25 02:39:26;;;;;;;3.65;2.88;;;11.50;58.40;;;;;;5014124;28;20129;-45
2023/05/25 02:41:54;;;;;;;5.35;3.22;;;11.50;58.10;;;;;;5005649;28;20140;-48
2023/05/25 02:44:28;;;;;;;5.78;3.38;;;11.50;58.20;;;;;;5018839;28;20486;-47
2023/05/25 02:46:55;;;;;;;5.47;3.38;;;11.40;58.40;;;;;;5032776;28;20056;-45
2023/05/25 02:49:24;;;;;;;4.65;3.50;;;11.40;58.40;;;;;;5013192;28;20041;-45
2023/05/25 02:51:56;;;;;;;3.45;3.15;;;11.40;58.60;;;;;;5006157;28;20068;-47
2023/05/25 02:54:22;;;;;;;4.25;3.30;;;11.40;58.70;;;;;;5023467;28;20121;-46
2023/05/25 02:56:49;;;;;;;4.15;3.17;;;11.40;58.50;;;;;;5006372;28;20084;-46
2023/05/25 02:59:17;;;;;;;3.20;2.90;;;11.30;58.60;;;;;;5006243;28;20048;-46
2023/05/25 03:01:45;;;;;;;4.82;3.60;;;11.30;58.50;;;;;;5013306;28;20041;-45
2023/05/25 03:04:17;;;;;;;3.80;2.88;;;11.30;58.60;;;;;;5012263;28;20059;-46
2023/05/25 03:06:44;;;;;;;3.47;3.15;;;11.30;58.90;;;;;;5011711;28;20475;-49
2023/05/25 03:09:19;;;;;;;3.90;2.92;;;11.30;58.70;;;;;;5006292;28;20052;-44
2023/05/25 03:11:48;;;;;;;4.05;3.40;;;11.30;59.00;;;;;;5011025;28;20049;-45
2023/05/25 03:14:18;;;;;;;3.60;3.25;;;11.30;58.80;;;;;;5006283;28;20129;-44
2023/05/25 03:16:52;;;;;;;5.88;2.90;;;11.20;58.70;;;;;;5031632;28;20071;-49
2023/05/25 03:19:22;;;;;;;4.30;3.25;;;11.20;58.80;;;;;;5014084;28;20088;-47
2023/05/25 03:21:49;;;;;;;3.53;3.13;;;11.20;58.70;;;;;;5030167;28;20045;-48
2023/05/25 03:24:20;;;;;;;3.47;3.17;;;11.20;58.70;;;;;;5011302;28;20037;-45
2023/05/25 03:26:47;;;;;;;4.00;3.38;;;11.20;58.70;;;;;;5014718;28;20041;-44
2023/05/25 03:29:17;;;;;;;4.03;3.20;;;11.20;58.70;;;;;;4998340;28;20119;-45
2023/05/25 03:31:45;;;;;;;4.22;3.83;;;11.10;58.70;;;;;;5006668;28;20064;-47
2023/05/25 03:34:16;;;;;;;7.68;3.92;;;11.10;58.80;;;;;;5000880;28;20080;-46
2023/05/25 03:36:46;;;;;;;5.78;4.28;;;11.10;59.10;;;;;;5025617;28;20171;-44
2023/05/25 03:39:17;;;;;;;7.40;4.50;;;11.10;59.60;;;;;;5009966;28;20042;-44
2023/05/25 03:41:47;;;;;;;6.40;4.10;;;11.10;60.20;;;;;;5010014;28;20205;-49
2023/05/25 03:44:15;;;;;;;5.03;3.15;;;11.10;60.90;;;;;;5056383;23;20049;-43
2023/05/25 03:46:42;;;;;;;6.03;3.78;;;11.10;60.70;;;;;;5034150;28;20041;-41
2023/05/25 03:49:14;;;;;;;4.72;3.63;;;11.10;60.60;;;;;;5033030;28;20137;-42
2023/05/25 03:51:45;;;;;;;14.05;4.10;;;11.10;60.50;;;;;;5033481;28;20057;-41
2023/05/25 03:54:12;;;;;;;8.18;4.85;;;11.10;60.20;;;;;;5043760;28;22014;-40
2023/05/25 03:56:42;;;;;;;6.20;4.07;;;11.10;60.40;;;;;;5030076;28;20127;-43
2023/05/25 03:59:11;;;;;;;5.70;4.10;;;11.10;60.30;;;;;;5032502;28;20057;-40
2023/05/25 04:01:41;;;;;;;6.28;4.35;;;11.10;60.20;;;;;;5033158;28;20115;-41
2023/05/25 04:04:08;;;;;;;6.75;4.25;;;11.20;60.30;;;;;;5049732;28;20106;-40
2023/05/25 04:06:36;;;;;;;6.15;4.28;;;11.20;60.40;;;;;;5035824;28;20524;-43
2023/05/25 04:09:08;;;;;;;6.00;3.78;;;11.20;60.40;;;;;;5050290;28;20044;-43
2023/05/25 04:11:35;;;;;;;6.13;4.40;;;11.20;60.60;;;;;;5032986;28;20123;-42
2023/05/25 04:14:03;;;;;;;6.43;4.30;;;11.20;60.40;;;;;;5032126;28;20045;-44
2023/05/25 04:16:33;;;;;;;6.15;4.07;;;11.20;60.40;;;;;;5050636;28;20045;-44
2023/05/25 04:19:01;;;;;;;4.03;3.70;;;11.20;60.50;;;;;;5033529;28;20040;-41
2023/05/25 04:21:35;;;;;;;5.95;4.03;;;11.30;60.80;;;;;;5028086;28;20687;-41
2023/05/25 04:24:10;;;;;;;4.95;3.50;;;11.30;61.00;;;;;;5048442;28;20041;-44
2023/05/25 04:26:39;;;;;;;5.70;4.22;;;11.30;60.80;;;;;;5050179;28;20132;-41
2023/05/25 04:29:08;;;;;;;3.78;3.47;;;11.30;60.90;;;;;;5033200;28;20509;-41
2023/05/25 04:32:08;;;;;;;6.13;4.07;;;11.30;61.20;;;;;;5000269;28;20885;-41
2023/05/25 04:34:55;;;;;;;5.07;4.15;;;11.40;61.00;;;;;;5028298;28;20055;-42
2023/05/25 04:37:29;;;;;;;6.93;4.03;;;11.40;61.20;;;;;;5036918;28;20041;-43
2023/05/25 04:39:58;;;;;;;5.05;4.18;;;11.40;61.60;;;;;;5027060;28;20425;-42
2023/05/25 04:42:25;;;;;;;8.98;5.15;;;11.50;61.80;;;;;;5032123;28;20133;-42
2023/05/25 04:44:57;;;;;;;6.75;4.68;;;11.50;62.00;;;;;;5012564;28;20045;-42
2023/05/25 04:47:24;;;;;;;6.15;4.15;;;11.50;62.00;;;;;;5033210;28;20140;-40
2023/05/25 04:49:55;;;;;;;5.63;4.25;;;11.60;62.10;;;;;;5028988;28;20069;-43
2023/05/25 04:52:22;;;;;;;8.30;5.30;;;11.60;62.30;;;;;;5043128;28;20029;-44
2023/05/25 04:54:50;;;;;;;7.22;5.05;;;11.60;62.30;;;;;;5028876;28;20152;-44
2023/05/25 04:57:17;;;;;;;7.07;4.80;;;11.70;62.50;;;;;;5031184;28;20302;-42
2023/05/25 04:59:45;;;;;;;7.78;5.50;;;11.70;62.60;;;;;;5027499;28;20041;-46
2023/05/25 05:02:11;;;;;;;6.82;4.57;;;11.80;62.90;;;;;;5047053;28;20095;-43
2023/05/25 05:04:40;;;;;;;5.72;4.80;;;11.90;63.00;;;;;;5041158;28;20040;-44
2023/05/25 05:07:07;;;;;;;6.43;4.72;;;11.90;63.20;;;;;;5032440;28;20132;-43
2023/05/25 05:09:34;;;;;;;5.20;4.70;;;12.00;63.20;;;;;;5030158;28;20037;-43
2023/05/25 05:12:02;;;;;;;6.53;4.72;;;12.10;63.40;;;;;;5035835;28;20103;-40
2023/05/25 05:14:33;;;;;;;10.50;6.60;;;12.10;63.70;;;;;;5031292;28;20043;-42
2023/05/25 05:16:59;;;;;;;11.00;5.43;;;12.20;63.90;;;;;;5050915;28;20337;-41
2023/05/25 05:19:27;;;;;;;8.57;5.80;;;12.20;64.30;;;;;;5037210;28;20045;-42
2023/05/25 05:21:55;;;;;;;10.35;6.05;;;12.30;64.60;;;;;;5031906;28;20136;-42
2023/05/25 05:24:24;;;;;;;12.00;6.50;;;12.30;64.60;;;;;;5031253;28;20040;-44
2023/05/25 05:26:51;;;;;;;10.32;5.55;;;12.40;64.70;;;;;;5029214;28;20041;-42
2023/05/25 05:29:44;;;;;;;13.95;6.50;;;12.50;64.80;;;;;;5043956;28;20056;-41
2023/05/25 05:32:11;;;;;;;9.13;6.15;;;12.60;64.70;;;;;;5030804;28;20041;-41
2023/05/25 05:34:40;;;;;;;8.38;6.07;;;12.70;64.80;;;;;;5030257;28;21053;-42
2023/05/25 05:37:18;;;;;;;13.27;7.03;;;12.70;64.70;;;;;;5026087;28;20532;-44
2023/05/25 05:39:44;;;;;;;10.88;5.70;;;12.80;64.60;;;;;;5030990;28;20044;-44
2023/05/25 05:42:11;;;;;;;15.82;5.95;;;12.90;64.70;;;;;;5024152;28;20090;-41
2023/05/25 05:44:38;;;;;;;11.52;5.53;;;12.90;64.70;;;;;;5046061;28;20525;-40
2023/05/25 05:47:05;;;;;;;11.25;6.30;;;13.00;64.70;;;;;;5047970;28;20102;-42
2023/05/25 05:49:36;;;;;;;9.48;5.45;;;13.10;64.60;;;;;;5047803;28;20041;-43
2023/05/25 05:52:03;;;;;;;9.50;5.75;;;13.10;64.70;;;;;;5046711;28;20530;-42
2023/05/25 05:54:31;;;;;;;8.18;5.80;;;13.20;64.70;;;;;;5027272;28;20099;-42
2023/05/25 05:57:03;;;;;;;8.57;5.93;;;13.20;64.80;;;;;;5047067;28;20049;-43
2023/05/25 05:59:30;;;;;;;8.30;5.25;;;13.30;64.50;;;;;;5047917;28;20071;-41
2023/05/25 06:01:56;;;;;;;10.23;6.32;;;13.30;64.50;;;;;;5030637;28;20052;-41
2023/05/25 06:04:27;;;;;;;9.73;6.63;;;13.40;64.40;;;;;;5048313;28;20055;-43
2023/05/25 06:06:54;;;;;;;9.88;6.05;;;13.50;64.40;;;;;;5030515;28;20064;-42
2023/05/25 06:09:21;;;;;;;9.60;5.80;;;13.50;64.40;;;;;;5028667;28;20072;-41
2023/05/25 06:11:50;;;;;;;9.98;5.95;;;13.60;64.40;;;;;;5050403;28;20033;-41
2023/05/25 06:14:17;;;;;;;12.10;7.35;;;13.60;64.30;;;;;;5046862;28;20078;-41
2023/05/25 06:16:44;;;;;;;9.13;6.63;;;13.60;64.30;;;;;;5030292;28;20548;-43
2023/05/25 06:19:12;;;;;;;13.65;6.53;;;13.70;64.30;;;;;;5029599;28;20085;-43
2023/05/25 06:21:39;;;;;;;11.13;6.55;;;13.80;64.10;;;;;;5028260;28;20045;-42
2023/05/25 06:24:06;;;;;;;11.77;6.38;;;13.80;64.10;;;;;;5047060;28;20072;-41
2023/05/25 06:26:33;;;;;;;10.13;6.00;;;13.80;64.60;;;;;;5032292;28;20040;-41
2023/05/25 06:29:00;;;;;;;9.95;7.00;;;13.90;64.10;;;;;;5032052;28;20067;-43
2023/05/25 06:31:27;;;;;;;10.35;6.47;;;14.00;64.10;;;;;;5040259;28;20037;-41
2023/05/25 06:33:54;;;;;;;10.50;6.38;;;14.00;63.80;;;;;;5030244;28;20563;-45
2023/05/25 06:36:21;;;;;;;11.02;6.97;;;14.00;64.00;;;;;;5049904;28;20049;-44
2023/05/25 06:38:48;;;;;;;14.95;6.72;;;14.10;64.00;;;;;;5030779;28;20048;-43
2023/05/25 06:41:14;;;;;;;10.32;7.53;;;14.10;64.10;;;;;;5031067;28;20100;-44
2023/05/25 06:43:42;;;;;;;8.60;5.32;;;14.20;64.10;;;;;;5047285;28;20124;-46
2023/05/25 06:46:16;;;;;;;9.75;6.13;;;14.20;64.00;;;;;;5031435;28;20037;-43
2023/05/25 06:48:45;;;;;;;9.90;6.20;;;14.30;64.50;;;;;;5048660;28;20059;-43
2023/05/25 06:51:12;;;;;;;13.20;6.60;;;14.40;63.70;;;;;;5030901;28;20041;-41
2023/05/25 06:53:39;;;;;;;11.25;6.70;;;14.40;63.80;;;;;;5048371;28;20075;-43
2023/05/25 06:56:06;;;;;;;14.15;6.70;;;14.40;63.80;;;;;;5049498;28;20044;-45
2023/05/25 06:58:32;;;;;;;10.73;5.63;;;14.50;63.70;;;;;;5051758;28;20045;-43
2023/05/25 07:00:59;;;;;;;8.90;5.75;;;14.60;63.80;;;;;;5048059;28;20472;-44
2023/05/25 07:03:26;;;;;;;11.90;7.25;;;14.60;63.60;;;;;;5051075;28;20091;-43
2023/05/25 07:05:56;;;;;;;12.65;6.57;;;14.60;63.70;;;;;;5052090;28;20375;-44
2023/05/25 07:08:23;;;;;;;12.15;6.82;;;14.70;63.50;;;;;;5052508;28;20569;-42
2023/05/25 07:10:50;;;;;;;11.55;6.25;;;14.80;63.30;;;;;;5052382;28;20033;-43
2023/05/25 07:13:16;;;;;;;8.77;6.00;;;14.80;63.00;;;;;;5049865;28;20052;-45
2023/05/25 07:15:43;;;;;;;12.98;5.97;;;14.90;62.90;;;;;;5051689;28;20032;-44
2023/05/25 07:18:11;;;;;;;14.73;6.65;;;14.90;62.80;;;;;;5051957;28;20710;-42
2023/05/25 07:20:40;;;;;;;14.90;7.45;;;15.00;62.80;;;;;;5030510;28;20068;-44
2023/05/25 07:23:08;;;;;;;13.80;6.45;;;15.00;62.60;;;;;;5050963;28;20048;-42
2023/05/25 07:25:37;;;;;;;13.95;5.88;;;15.10;62.30;;;;;;5051853;28;20037;-44
2023/05/25 07:28:04;;;;;;;11.15;5.05;;;15.10;62.00;;;;;;5052173;28;20091;-42
2023/05/25 07:30:31;;;;;;;9.45;5.32;;;15.20;61.90;;;;;;5043408;28;20041;-41
2023/05/25 07:32:58;;;;;;;8.13;5.72;;;15.20;61.90;;;;;;5053267;28;20127;-44
2023/05/25 07:35:25;;;;;;;9.85;5.22;;;15.30;61.90;;;;;;5051302;28;20047;-42
2023/05/25 07:37:59;;;;;;;8.68;6.03;;;15.30;61.80;;;;;;5048847;28;20055;-45
2023/05/25 07:40:27;;;;;;;13.15;6.03;;;15.40;61.50;;;;;;5051658;28;20045;-41
2023/05/25 07:42:54;;;;;;;8.55;5.90;;;15.40;61.30;;;;;;5051018;28;20124;-44
2023/05/25 07:45:20;;;;;;;10.00;5.72;;;15.50;61.30;;;;;;5050884;28;20120;-41
2023/05/25 07:47:47;;;;;;;11.13;6.47;;;15.50;61.50;;;;;;5051661;28;20037;-43
2023/05/25 07:50:15;;;;;;;7.20;4.85;;;15.50;61.60;;;;;;5050924;28;20041;-42
2023/05/25 07:52:42;;;;;;;11.50;6.53;;;15.60;61.40;;;;;;5050207;28;20040;-41
2023/05/25 07:55:09;;;;;;;10.57;5.82;;;15.70;61.10;;;;;;5050821;28;20045;-44
2023/05/25 07:57:35;;;;;;;12.65;5.35;;;15.70;61.00;;;;;;5051914;28;20045;-40
2023/05/25 08:00:09;;;;;;;8.07;5.35;;;15.80;60.90;;;;;;5050592;28;20064;-44
2023/05/25 08:02:39;;;;;;;10.05;5.22;;;15.80;60.80;;;;;;5043721;28;20045;-43
2023/05/25 08:05:06;;;;;;;10.63;5.57;;;15.90;60.50;;;;;;5032281;28;20053;-43
2023/05/25 08:07:33;;;;;;;10.85;6.63;;;16.00;60.40;;;;;;5051528;28;20108;-41
2023/05/25 08:10:01;;;;;;;9.13;6.80;;;16.00;60.30;;;;;;5049056;28;20459;-42
2023/05/25 08:12:28;;;;;;;10.48;6.55;;;16.10;60.20;;;;;;5051439;28;20127;-41
2023/05/25 08:15:12;;;;;;;9.90;6.13;;;16.10;59.90;;;;;;5032356;28;20051;-42
2023/05/25 08:17:40;;;;;;;13.88;6.25;;;16.20;59.90;;;;;;5051066;28;20107;-43
2023/05/25 08:20:08;;;;;;;14.43;6.20;;;16.30;59.80;;;;;;5052392;28;20055;-43
2023/05/25 08:22:35;;;;;;;10.52;5.90;;;16.40;59.30;;;;;;5042082;28;20087;-45
2023/05/25 08:25:04;;;;;;;10.38;6.43;;;16.40;59.30;;;;;;5050198;28;20051;-43
2023/05/25 08:27:30;;;;;;;8.65;5.97;;;16.50;59.40;;;;;;5051005;28;20493;-41
2023/05/25 08:30:02;;;;;;;11.77;7.60;;;16.50;59.20;;;;;;5050484;28;20045;-44
2023/05/25 08:32:29;;;;;;;12.20;6.68;;;16.60;59.40;;;;;;5050549;28;20930;-43
2023/05/25 08:34:55;;;;;;;12.05;7.00;;;16.60;59.40;;;;;;5049345;28;20512;-42
2023/05/25 08:37:23;;;;;;;10.30;7.13;;;16.60;59.50;;;;;;5051268;28;20533;-43
2023/05/25 08:39:50;;;;;;;13.15;8.02;;;16.70;59.20;;;;;;5050158;28;20134;-47
2023/05/25 08:42:17;;;;;;;11.07;7.78;;;16.70;58.60;;;;;;5049976;28;20101;-43
2023/05/25 08:44:43;;;;;;;10.90;7.65;;;16.80;58.60;;;;;;5050712;28;20047;-43
2023/05/25 08:47:14;;;;;;;11.35;7.80;;;16.80;58.60;;;;;;5051166;28;20151;-41
2023/05/25 08:49:43;;;;;;;13.32;7.88;;;16.80;58.40;;;;;;5047087;28;20084;-42
2023/05/25 08:52:13;;;;;;;12.75;8.25;;;16.90;58.20;;;;;;5048469;28;20041;-44
2023/05/25 08:54:43;;;;;;;11.73;7.60;;;17.00;57.70;;;;;;5049034;28;20509;-42
2023/05/25 08:57:27;;;;;;;12.23;7.97;;;17.00;57.80;;;;;;5046431;28;20044;-45
2023/05/25 09:00:11;;;;;;;13.68;7.97;;;17.10;58.20;;;;;;5043953;28;20073;-43
2023/05/25 09:02:46;;;;;;;13.05;7.05;;;17.20;58.20;;;;;;5046062;28;20853;-42
2023/05/25 09:05:14;;;;;;;13.07;6.50;;;17.30;58.60;;;;;;5051555;28;20119;-45
2023/05/25 09:07:42;;;;;;;9.63;5.47;;;17.40;58.10;;;;;;5050883;28;20033;-43
2023/05/25 09:10:13;;;;;;;6.82;4.60;;;17.50;57.80;;;;;;5047317;28;20095;-42
2023/05/25 09:12:42;;;;;;;7.72;3.72;;;17.60;57.10;;;;;;5049846;28;20408;-41
2023/05/25 09:15:10;;;;;;;5.50;4.25;;;17.70;57.20;;;;;;5049260;28;20446;-42
2023/05/25 09:17:37;;;;;;;7.57;4.70;;;17.70;55.70;;;;;;5050596;28;20099;-44
2023/05/25 09:20:04;;;;;;;7.03;3.50;;;17.70;55.70;;;;;;5048422;28;20083;-45
2023/05/25 09:22:31;;;;;;;10.18;5.18;;;17.80;55.30;;;;;;5049751;28;20052;-43
2023/05/25 09:24:58;;;;;;;6.88;4.57;;;17.70;55.30;;;;;;5048382;28;20116;-42
2023/05/25 09:27:25;;;;;;;6.97;3.22;;;17.70;55.10;;;;;;5050253;28;20069;-44
2023/05/25 09:29:51;;;;;;;8.73;4.28;;;17.70;55.20;;;;;;5049020;28;20131;-42
2023/05/25 09:32:18;;;;;;;7.72;4.13;;;17.70;55.10;;;;;;5049189;28;20064;-41
2023/05/25 09:34:46;;;;;;;7.32;3.80;;;17.70;55.00;;;;;;5047748;28;20314;-46
2023/05/25 09:37:15;;;;;;;5.50;3.30;;;17.60;54.80;;;;;;5050707;28;20045;-42
2023/05/25 09:39:43;;;;;;;6.95;3.22;;;17.60;55.70;;;;;;5048094;28;20039;-45
2023/05/25 09:42:12;;;;;;;5.28;3.22;;;17.70;56.20;;;;;;5043141;28;20041;-42
2023/05/25 09:44:41;;;;;;;6.57;3.55;;;17.70;56.00;;;;;;5044841;28;20048;-45
2023/05/25 09:47:08;;;;;;;16.73;4.03;;;17.80;56.10;;;;;;5041288;28;20041;-41
2023/05/25 09:49:35;;;;;;;7.05;4.30;;;17.90;56.10;;;;;;5043670;28;20429;-41
2023/05/25 09:52:01;;;;;;;4.70;3.17;;;18.10;56.10;;;;;;5053214;22;20563;-46
2023/05/25 09:54:28;;;;;;;6.03;3.47;;;18.30;56.00;;;;;;5026499;28;20042;-45
2023/05/25 09:56:55;;;;;;;6.03;3.47;;;18.40;55.00;;;;;;5026767;28;20379;-46
2023/05/25 09:59:22;;;;;;;8.52;4.32;;;18.50;54.00;;;;;;5010446;28;20054;-49
2023/05/25 10:01:51;;;;;;;4.97;3.50;;;18.70;54.50;;;;;;5026044;28;20054;-49
2023/05/25 10:04:18;;;;;;;8.45;4.03;;;18.70;55.60;;;;;;5036388;28;20045;-50
2023/05/25 10:06:48;;;;;;;6.22;3.22;;;18.90;54.60;;;;;;5028352;28;20053;-45
2023/05/25 10:09:17;;;;;;;8.18;4.07;;;19.10;54.20;;;;;;5028148;28;20140;-49
2023/05/25 10:11:45;;;;;;;5.45;3.53;;;19.30;54.00;;;;;;5023741;28;20120;-49
2023/05/25 10:14:20;;;;;;;3.83;3.28;;;19.40;53.10;;;;;;5028717;28;20167;-49
2023/05/25 10:16:49;;;;;;;6.70;3.90;;;19.50;52.60;;;;;;5028430;28;20076;-50
2023/05/25 10:19:32;;;;;;;6.30;4.07;;;19.60;52.50;;;;;;5022074;28;20042;-50
2023/05/25 10:22:07;;;;;;;6.70;4.13;;;19.60;51.70;;;;;;5026375;28;20099;-49
2023/05/25 10:24:41;;;;;;;6.93;4.85;;;19.70;51.60;;;;;;5022953;28;20112;-45
2023/05/25 10:27:15;;;;;;;6.55;3.92;;;19.70;52.40;;;;;;5025400;28;20073;-49
2023/05/25 10:29:55;;;;;;;4.65;3.55;;;19.70;52.30;;;;;;5021491;28;20065;-48
2023/05/25 10:32:22;;;;;;;6.30;4.03;;;19.80;52.80;;;;;;5024203;28;20113;-48
2023/05/25 10:34:51;;;;;;;6.13;3.45;;;19.90;52.60;;;;;;5027997;28;20132;-50
2023/05/25 10:37:19;;;;;;;7.00;3.50;;;20.10;52.30;;;;;;5025048;28;20063;-50
2023/05/25 10:39:48;;;;;;;5.75;3.95;;;20.10;52.40;;;;;;5028063;28;20185;-50
2023/05/25 10:42:17;;;;;;;3.80;3.13;;;20.30;52.10;;;;;;5027759;28;20124;-46
2023/05/25 10:44:45;;;;;;;6.88;3.50;;;20.40;51.20;;;;;;5032026;28;20038;-46
2023/05/25 10:47:12;;;;;;;5.57;3.05;;;20.50;51.20;;;;;;5028211;28;20041;-48
2023/05/25 10:49:51;;;;;;;7.47;4.15;;;20.60;51.30;;;;;;5028810;28;20519;-50
2023/05/25 10:52:18;;;;;;;6.00;4.00;;;20.70;51.40;;;;;;5028192;28;20037;-48
2023/05/25 10:54:48;;;;;;;3.45;3.15;;;20.90;51.40;;;;;;5028972;28;20037;-46
2023/05/25 10:57:22;;;;;;;3.60;2.75;;;21.00;50.60;;;;;;5027533;28;20120;-49
2023/05/25 10:59:53;;;;;;;5.53;3.05;;;21.20;50.40;;;;;;5028768;28;20049;-47
2023/05/25 11:02:23;;;;;;;9.07;4.18;;;21.40;49.30;;;;;;5025631;28;20077;-46
2023/05/25 11:05:10;;;;;;;8.02;4.63;;;21.40;48.80;;;;;;5027770;28;20033;-47
2023/05/25 11:07:52;;;;;;;5.22;2.85;;;21.60;48.70;;;;;;5025315;28;20041;-47
2023/05/25 11:10:40;;;;;;;6.07;3.90;;;21.60;48.10;;;;;;5028349;28;20037;-50
2023/05/25 11:13:43;;;;;;;3.90;3.30;;;21.70;47.60;;;;;;5022314;28;20492;-49
2023/05/25 11:16:14;;;;;;;5.07;3.30;;;21.70;47.80;;;;;;5025123;28;20065;-46
2023/05/25 11:18:44;;;;;;;4.38;2.53;;;21.70;47.40;;;;;;5026468;28;20052;-49
2023/05/25 11:21:26;;;;;;;3.30;2.92;;;21.60;48.00;;;;;;5024121;28;20042;-47
2023/05/25 11:23:54;;;;;;;4.35;3.22;;;21.70;47.60;;;;;;5026295;28;20056;-46
2023/05/25 11:26:22;;;;;;;4.75;3.22;;;21.70;48.10;;;;;;5026613;28;20121;-47
2023/05/25 11:28:57;;;;;;;4.72;2.80;;;21.70;47.50;;;;;;5024268;28;20038;-47
2023/05/25 11:31:31;;;;;;;4.20;2.83;;;21.70;47.40;;;;;;5024928;28;20100;-48
2023/05/25 11:34:04;;;;;;;5.15;2.65;;;21.70;47.20;;;;;;5023851;28;20061;-47
2023/05/25 11:36:33;;;;;;;3.90;2.75;;;21.60;47.30;;;;;;5025905;28;20045;-50
2023/05/25 11:39:05;;;;;;;4.43;3.13;;;21.60;47.10;;;;;;5026353;28;20050;-50
2023/05/25 11:41:54;;;;;;;4.35;3.90;;;21.70;48.10;;;;;;5023678;28;20049;-50
2023/05/25 11:44:28;;;;;;;6.40;3.90;;;21.70;48.00;;;;;;5024381;28;20045;-49
2023/05/25 11:46:56;;;;;;;6.75;3.10;;;21.80;47.00;;;;;;5026117;28;20103;-48
2023/05/25 11:49:24;;;;;;;5.03;3.67;;;21.90;47.40;;;;;;5024451;28;20065;-50
2023/05/25 11:51:53;;;;;;;5.80;4.05;;;21.90;47.30;;;;;;5019386;28;20125;-50
2023/05/25 11:54:24;;;;;;;3.45;3.15;;;22.00;47.00;;;;;;5024996;28;20096;-50
2023/05/25 11:56:52;;;;;;;5.37;2.90;;;22.10;47.10;;;;;;5026371;28;20045;-49
2023/05/25 11:59:19;;;;;;;5.00;2.88;;;22.20;46.40;;;;;;5027831;28;20284;-49
2023/05/25 12:01:55;;;;;;;6.72;3.35;;;22.30;46.10;;;;;;5022700;28;20113;-46
2023/05/25 12:04:22;;;;;;;4.63;2.85;;;22.30;45.70;;;;;;5027381;28;20065;-49
2023/05/25 12:06:50;;;;;;;5.88;3.25;;;22.40;46.00;;;;;;5024137;28;20041;-49
2023/05/25 12:09:21;;;;;;;5.35;2.78;;;22.40;45.90;;;;;;5022532;28;20058;-48
2023/05/25 12:11:48;;;;;;;5.75;3.15;;;22.40;46.40;;;;;;5020258;28;20075;-49
2023/05/25 12:14:14;;;;;;;8.55;4.00;;;22.40;46.80;;;;;;5028003;28;20521;-49
2023/05/25 12:16:42;;;;;;;5.63;4.22;;;22.50;46.40;;;;;;5024579;28;20526;-51
2023/05/25 12:19:12;;;;;;;7.30;4.30;;;22.50;45.90;;;;;;5021823;28;20755;-49
2023/05/25 12:21:40;;;;;;;6.80;3.65;;;22.50;45.90;;;;;;5028502;28;20045;-49
2023/05/25 12:24:07;;;;;;;6.85;4.10;;;22.60;46.00;;;;;;5021812;28;20450;-50
2023/05/25 12:26:45;;;;;;;5.90;3.95;;;22.60;46.10;;;;;;5027953;28;20136;-49
2023/05/25 12:29:12;;;;;;;7.22;4.88;;;22.60;45.70;;;;;;5022398;28;20413;-50
2023/05/25 12:31:39;;;;;;;7.78;4.63;;;22.60;45.70;;;;;;5026967;28;20045;-49
2023/05/25 12:34:16;;;;;;;5.43;3.67;;;22.60;45.50;;;;;;5030909;28;20502;-48
2023/05/25 12:36:45;;;;;;;6.43;4.03;;;22.60;45.90;;;;;;5030766;28;20395;-49
2023/05/25 12:39:15;;;;;;;6.88;4.28;;;22.70;46.10;;;;;;5030155;28;20134;-50
2023/05/25 12:41:45;;;;;;;5.97;4.00;;;22.70;45.70;;;;;;5027709;28;20045;-46
2023/05/25 12:44:32;;;;;;;6.80;3.97;;;22.80;45.70;;;;;;5025469;28;20104;-48
2023/05/25 12:47:22;;;;;;;6.28;4.28;;;22.90;45.70;;;;;;5024084;28;20109;-45
2023/05/25 12:49:50;;;;;;;8.70;4.13;;;23.10;45.50;;;;;;5022710;28;20546;-47
2023/05/25 12:52:34;;;;;;;6.72;3.90;;;23.20;44.70;;;;;;5026770;28;20076;-47
2023/05/25 12:55:19;;;;;;;6.30;4.22;;;23.30;44.20;;;;;;5021145;28;20120;-50
2023/05/25 12:57:51;;;;;;;6.22;3.72;;;23.30;44.10;;;;;;5025949;28;20037;-47
2023/05/25 13:00:22;;;;;;;5.80;3.27;;;23.40;44.10;;;;;;5029853;28;20045;-50
2023/05/25 13:02:52;;;;;;;4.03;3.20;;;23.40;44.10;;;;;;5022121;28;21453;-50